sensor_id;sensor_type;location;lat;lon;timestamp;P1;durP1;ratioP1;P2;durP2;ratioP2
3843;SDS011;1937;51.444;6.484;2023-11-18T00:00:06;54.10;;;25.13;;
3843;SDS011;1937;51.444;6.484;2023-11-18T00:02:37;50.13;;;23.03;;
3843;SDS011;1937;51.444;6.484;2023-11-18T00:05:04;43.27;;;21.47;;
3843;SDS011;1937;51.444;6.484;2023-11-18T00:07:32;46.47;;;24.27;;
3843;SDS011;1937;51.444;6.484;2023-11-18T00:09:59;46.57;;;20.50;;
3843;SDS011;1937;51.444;6.484;2023-11-18T00:12:25;41.77;;;20.77;;
3843;SDS011;1937;51.444;6.484;2023-11-18T00:14:52;48.13;;;19.30;;
3843;SDS011;1937;51.444;6.484;2023-11-18T00:17:20;48.87;;;23.03;;
3843;SDS011;1937;51.444;6.484;2023-11-18T00:19:47;47.77;;;21.30;;
3843;SDS011;1937;51.444;6.484;2023-11-18T00:22:13;63.87;;;26.77;;
3843;SDS011;1937;51.444;6.484;2023-11-18T00:24:40;55.03;;;25.20;;
3843;SDS011;1937;51.444;6.484;2023-11-18T00:27:06;44.60;;;21.63;;
3843;SDS011;1937;51.444;6.484;2023-11-18T00:29:33;44.63;;;20.43;;
3843;SDS011;1937;51.444;6.484;2023-11-18T00:32:00;49.93;;;22.23;;
3843;SDS011;1937;51.444;6.484;2023-11-18T00:34:29;54.27;;;24.37;;
3843;SDS011;1937;51.444;6.484;2023-11-18T00:36:55;46.57;;;23.37;;
3843;SDS011;1937;51.444;6.484;2023-11-18T00:39:23;39.87;;;21.37;;
3843;SDS011;1937;51.444;6.484;2023-11-18T00:41:49;48.40;;;20.30;;
3843;SDS011;1937;51.444;6.484;2023-11-18T00:44:16;41.37;;;19.20;;
3843;SDS011;1937;51.444;6.484;2023-11-18T00:46:43;43.53;;;24.23;;
3843;SDS011;1937;51.444;6.484;2023-11-18T00:49:09;45.33;;;21.20;;
3843;SDS011;1937;51.444;6.484;2023-11-18T00:51:38;43.23;;;21.63;;
3843;SDS011;1937;51.444;6.484;2023-11-18T00:54:06;51.70;;;22.10;;
3843;SDS011;1937;51.444;6.484;2023-11-18T00:56:34;44.07;;;20.97;;
3843;SDS011;1937;51.444;6.484;2023-11-18T00:59:01;50.53;;;21.53;;
3843;SDS011;1937;51.444;6.484;2023-11-18T01:01:27;43.20;;;20.50;;
3843;SDS011;1937;51.444;6.484;2023-11-18T01:03:54;46.23;;;19.00;;
3843;SDS011;1937;51.444;6.484;2023-11-18T01:06:24;39.17;;;18.53;;
3843;SDS011;1937;51.444;6.484;2023-11-18T01:08:52;32.13;;;18.00;;
3843;SDS011;1937;51.444;6.484;2023-11-18T01:11:19;38.70;;;18.40;;
3843;SDS011;1937;51.444;6.484;2023-11-18T01:13:47;35.43;;;18.50;;
3843;SDS011;1937;51.444;6.484;2023-11-18T01:16:15;32.77;;;17.23;;
3843;SDS011;1937;51.444;6.484;2023-11-18T01:18:41;40.20;;;17.37;;
3843;SDS011;1937;51.444;6.484;2023-11-18T01:21:09;38.67;;;21.03;;
3843;SDS011;1937;51.444;6.484;2023-11-18T01:23:36;43.83;;;19.90;;
3843;SDS011;1937;51.444;6.484;2023-11-18T01:26:05;47.87;;;21.80;;
3843;SDS011;1937;51.444;6.484;2023-11-18T01:28:31;44.20;;;20.70;;
3843;SDS011;1937;51.444;6.484;2023-11-18T01:31:01;37.80;;;19.17;;
3843;SDS011;1937;51.444;6.484;2023-11-18T01:33:29;29.20;;;16.07;;
3843;SDS011;1937;51.444;6.484;2023-11-18T01:35:55;44.60;;;19.70;;
3843;SDS011;1937;51.444;6.484;2023-11-18T01:38:22;38.00;;;18.07;;
3843;SDS011;1937;51.444;6.484;2023-11-18T01:40:48;48.30;;;20.60;;
3843;SDS011;1937;51.444;6.484;2023-11-18T01:43:16;40.03;;;19.53;;
3843;SDS011;1937;51.444;6.484;2023-11-18T01:45:43;40.87;;;20.00;;
3843;SDS011;1937;51.444;6.484;2023-11-18T01:48:09;52.17;;;23.73;;
3843;SDS011;1937;51.444;6.484;2023-11-18T01:50:36;49.47;;;20.77;;
3843;SDS011;1937;51.444;6.484;2023-11-18T01:53:05;54.27;;;23.20;;
3843;SDS011;1937;51.444;6.484;2023-11-18T01:55:32;59.83;;;23.83;;
3843;SDS011;1937;51.444;6.484;2023-11-18T01:58:00;56.77;;;23.47;;
3843;SDS011;1937;51.444;6.484;2023-11-18T02:00:34;50.07;;;24.60;;
3843;SDS011;1937;51.444;6.484;2023-11-18T02:03:03;54.33;;;25.20;;
3843;SDS011;1937;51.444;6.484;2023-11-18T02:05:30;54.97;;;21.77;;
3843;SDS011;1937;51.444;6.484;2023-11-18T02:07:57;39.90;;;20.00;;
3843;SDS011;1937;51.444;6.484;2023-11-18T02:10:25;58.43;;;21.60;;
3843;SDS011;1937;51.444;6.484;2023-11-18T02:12:53;53.37;;;22.57;;
3843;SDS011;1937;51.444;6.484;2023-11-18T02:15:24;48.73;;;21.27;;
3843;SDS011;1937;51.444;6.484;2023-11-18T02:17:53;56.60;;;24.53;;
3843;SDS011;1937;51.444;6.484;2023-11-18T02:20:21;61.00;;;24.90;;
3843;SDS011;1937;51.444;6.484;2023-11-18T02:22:48;58.00;;;25.83;;
3843;SDS011;1937;51.444;6.484;2023-11-18T02:25:16;49.63;;;22.00;;
3843;SDS011;1937;51.444;6.484;2023-11-18T02:27:45;55.50;;;22.43;;
3843;SDS011;1937;51.444;6.484;2023-11-18T02:30:13;45.10;;;19.73;;
3843;SDS011;1937;51.444;6.484;2023-11-18T02:32:43;53.57;;;21.27;;
3843;SDS011;1937;51.444;6.484;2023-11-18T02:35:15;49.23;;;20.27;;
3843;SDS011;1937;51.444;6.484;2023-11-18T02:37:49;55.80;;;22.00;;
3843;SDS011;1937;51.444;6.484;2023-11-18T02:40:20;52.33;;;20.93;;
3843;SDS011;1937;51.444;6.484;2023-11-18T02:42:56;45.30;;;22.30;;
3843;SDS011;1937;51.444;6.484;2023-11-18T02:45:25;53.40;;;21.03;;
3843;SDS011;1937;51.444;6.484;2023-11-18T02:47:53;52.00;;;21.37;;
3843;SDS011;1937;51.444;6.484;2023-11-18T02:50:22;46.30;;;21.70;;
3843;SDS011;1937;51.444;6.484;2023-11-18T02:52:49;53.77;;;22.57;;
3843;SDS011;1937;51.444;6.484;2023-11-18T02:55:15;48.57;;;20.23;;
3843;SDS011;1937;51.444;6.484;2023-11-18T02:57:42;50.27;;;21.63;;
3843;SDS011;1937;51.444;6.484;2023-11-18T03:00:11;44.87;;;19.63;;
3843;SDS011;1937;51.444;6.484;2023-11-18T03:02:43;46.13;;;20.60;;
3843;SDS011;1937;51.444;6.484;2023-11-18T03:05:11;44.67;;;21.47;;
3843;SDS011;1937;51.444;6.484;2023-11-18T03:07:37;48.03;;;20.07;;
3843;SDS011;1937;51.444;6.484;2023-11-18T03:10:04;43.63;;;18.53;;
3843;SDS011;1937;51.444;6.484;2023-11-18T03:12:37;34.87;;;18.57;;
3843;SDS011;1937;51.444;6.484;2023-11-18T03:15:04;43.40;;;19.20;;
3843;SDS011;1937;51.444;6.484;2023-11-18T03:17:35;38.73;;;16.77;;
3843;SDS011;1937;51.444;6.484;2023-11-18T03:20:03;37.30;;;18.57;;
3843;SDS011;1937;51.444;6.484;2023-11-18T03:22:33;45.97;;;20.03;;
3843;SDS011;1937;51.444;6.484;2023-11-18T03:25:00;36.63;;;16.73;;
3843;SDS011;1937;51.444;6.484;2023-11-18T03:27:26;45.93;;;18.60;;
3843;SDS011;1937;51.444;6.484;2023-11-18T03:29:53;38.17;;;17.80;;
3843;SDS011;1937;51.444;6.484;2023-11-18T03:32:19;35.00;;;16.37;;
3843;SDS011;1937;51.444;6.484;2023-11-18T03:34:47;38.13;;;16.70;;
3843;SDS011;1937;51.444;6.484;2023-11-18T03:37:14;38.03;;;17.33;;
3843;SDS011;1937;51.444;6.484;2023-11-18T03:39:40;44.70;;;18.10;;
3843;SDS011;1937;51.444;6.484;2023-11-18T03:42:07;48.20;;;17.47;;
3843;SDS011;1937;51.444;6.484;2023-11-18T03:44:34;40.47;;;17.23;;
3843;SDS011;1937;51.444;6.484;2023-11-18T03:47:00;40.20;;;17.07;;
3843;SDS011;1937;51.444;6.484;2023-11-18T03:49:28;46.13;;;17.53;;
3843;SDS011;1937;51.444;6.484;2023-11-18T03:51:56;43.90;;;16.87;;
3843;SDS011;1937;51.444;6.484;2023-11-18T03:54:22;50.93;;;20.47;;
3843;SDS011;1937;51.444;6.484;2023-11-18T03:56:49;38.00;;;17.10;;
3843;SDS011;1937;51.444;6.484;2023-11-18T03:59:16;36.43;;;18.40;;
3843;SDS011;1937;51.444;6.484;2023-11-18T04:01:42;32.50;;;17.33;;
3843;SDS011;1937;51.444;6.484;2023-11-18T04:04:09;39.33;;;17.87;;
3843;SDS011;1937;51.444;6.484;2023-11-18T04:06:35;49.37;;;18.97;;
3843;SDS011;1937;51.444;6.484;2023-11-18T04:09:03;44.40;;;17.37;;
3843;SDS011;1937;51.444;6.484;2023-11-18T04:11:31;43.63;;;17.80;;
3843;SDS011;1937;51.444;6.484;2023-11-18T04:13:57;44.70;;;17.30;;
3843;SDS011;1937;51.444;6.484;2023-11-18T04:16:24;39.53;;;16.00;;
3843;SDS011;1937;51.444;6.484;2023-11-18T04:18:50;40.37;;;19.77;;
3843;SDS011;1937;51.444;6.484;2023-11-18T04:21:17;50.50;;;19.50;;
3843;SDS011;1937;51.444;6.484;2023-11-18T04:23:43;47.03;;;17.93;;
3843;SDS011;1937;51.444;6.484;2023-11-18T04:26:13;46.80;;;17.70;;
3843;SDS011;1937;51.444;6.484;2023-11-18T04:28:40;49.23;;;19.80;;
3843;SDS011;1937;51.444;6.484;2023-11-18T04:31:06;48.40;;;20.33;;
3843;SDS011;1937;51.444;6.484;2023-11-18T04:33:33;40.77;;;18.90;;
3843;SDS011;1937;51.444;6.484;2023-11-18T04:35:59;44.07;;;17.90;;
3843;SDS011;1937;51.444;6.484;2023-11-18T04:38:26;47.20;;;19.83;;
3843;SDS011;1937;51.444;6.484;2023-11-18T04:40:53;44.10;;;18.53;;
3843;SDS011;1937;51.444;6.484;2023-11-18T04:43:22;43.07;;;19.60;;
3843;SDS011;1937;51.444;6.484;2023-11-18T04:45:51;46.27;;;17.37;;
3843;SDS011;1937;51.444;6.484;2023-11-18T04:48:17;40.20;;;17.20;;
3843;SDS011;1937;51.444;6.484;2023-11-18T04:50:46;57.07;;;19.20;;
3843;SDS011;1937;51.444;6.484;2023-11-18T04:53:13;43.63;;;18.00;;
3843;SDS011;1937;51.444;6.484;2023-11-18T04:55:39;42.37;;;17.70;;
3843;SDS011;1937;51.444;6.484;2023-11-18T04:58:06;49.03;;;18.43;;
3843;SDS011;1937;51.444;6.484;2023-11-18T05:00:35;50.00;;;20.07;;
3843;SDS011;1937;51.444;6.484;2023-11-18T05:03:03;46.37;;;17.30;;
3843;SDS011;1937;51.444;6.484;2023-11-18T05:05:30;52.87;;;19.77;;
3843;SDS011;1937;51.444;6.484;2023-11-18T05:07:57;49.77;;;20.07;;
3843;SDS011;1937;51.444;6.484;2023-11-18T05:10:23;45.40;;;20.83;;
3843;SDS011;1937;51.444;6.484;2023-11-18T05:12:50;42.13;;;18.00;;
3843;SDS011;1937;51.444;6.484;2023-11-18T05:15:21;45.53;;;17.23;;
3843;SDS011;1937;51.444;6.484;2023-11-18T05:17:51;52.70;;;18.70;;
3843;SDS011;1937;51.444;6.484;2023-11-18T05:20:18;49.67;;;21.20;;
3843;SDS011;1937;51.444;6.484;2023-11-18T05:22:44;47.30;;;18.77;;
3843;SDS011;1937;51.444;6.484;2023-11-18T05:25:11;46.40;;;18.80;;
3843;SDS011;1937;51.444;6.484;2023-11-18T05:27:38;54.47;;;22.10;;
3843;SDS011;1937;51.444;6.484;2023-11-18T05:30:06;53.83;;;19.23;;
3843;SDS011;1937;51.444;6.484;2023-11-18T05:32:34;49.30;;;20.00;;
3843;SDS011;1937;51.444;6.484;2023-11-18T05:35:03;44.07;;;18.63;;
3843;SDS011;1937;51.444;6.484;2023-11-18T05:37:30;53.13;;;22.30;;
3843;SDS011;1937;51.444;6.484;2023-11-18T05:40:00;41.50;;;18.20;;
3843;SDS011;1937;51.444;6.484;2023-11-18T05:42:31;47.00;;;19.70;;
3843;SDS011;1937;51.444;6.484;2023-11-18T05:44:58;56.97;;;21.23;;
3843;SDS011;1937;51.444;6.484;2023-11-18T05:47:25;44.97;;;17.93;;
3843;SDS011;1937;51.444;6.484;2023-11-18T05:49:51;50.57;;;20.30;;
3843;SDS011;1937;51.444;6.484;2023-11-18T05:52:20;49.13;;;18.73;;
3843;SDS011;1937;51.444;6.484;2023-11-18T05:54:47;37.97;;;17.47;;
3843;SDS011;1937;51.444;6.484;2023-11-18T05:57:14;45.70;;;19.93;;
3843;SDS011;1937;51.444;6.484;2023-11-18T05:59:41;47.47;;;19.67;;
3843;SDS011;1937;51.444;6.484;2023-11-18T06:02:08;44.60;;;19.33;;
3843;SDS011;1937;51.444;6.484;2023-11-18T06:04:37;40.97;;;16.87;;
3843;SDS011;1937;51.444;6.484;2023-11-18T06:07:04;49.47;;;19.10;;
3843;SDS011;1937;51.444;6.484;2023-11-18T06:09:32;45.80;;;19.77;;
3843;SDS011;1937;51.444;6.484;2023-11-18T06:11:59;49.97;;;18.73;;
3843;SDS011;1937;51.444;6.484;2023-11-18T06:14:26;43.80;;;19.03;;
3843;SDS011;1937;51.444;6.484;2023-11-18T06:16:52;50.63;;;19.67;;
3843;SDS011;1937;51.444;6.484;2023-11-18T06:19:19;41.00;;;18.77;;
3843;SDS011;1937;51.444;6.484;2023-11-18T06:21:46;43.13;;;17.57;;
3843;SDS011;1937;51.444;6.484;2023-11-18T06:24:13;37.53;;;17.03;;
3843;SDS011;1937;51.444;6.484;2023-11-18T06:26:41;43.97;;;20.57;;
3843;SDS011;1937;51.444;6.484;2023-11-18T06:29:07;48.20;;;19.33;;
3843;SDS011;1937;51.444;6.484;2023-11-18T06:31:34;41.37;;;16.93;;
3843;SDS011;1937;51.444;6.484;2023-11-18T06:34:00;39.97;;;18.90;;
3843;SDS011;1937;51.444;6.484;2023-11-18T06:36:28;43.40;;;19.60;;
3843;SDS011;1937;51.444;6.484;2023-11-18T06:38:56;42.27;;;18.93;;
3843;SDS011;1937;51.444;6.484;2023-11-18T06:41:24;40.90;;;19.13;;
3843;SDS011;1937;51.444;6.484;2023-11-18T06:43:52;45.87;;;18.00;;
3843;SDS011;1937;51.444;6.484;2023-11-18T06:46:26;50.10;;;19.80;;
3843;SDS011;1937;51.444;6.484;2023-11-18T06:48:56;35.57;;;16.80;;
3843;SDS011;1937;51.444;6.484;2023-11-18T06:51:24;40.73;;;18.00;;
3843;SDS011;1937;51.444;6.484;2023-11-18T06:53:52;42.13;;;17.67;;
3843;SDS011;1937;51.444;6.484;2023-11-18T06:56:20;42.90;;;19.00;;
3843;SDS011;1937;51.444;6.484;2023-11-18T06:58:46;46.70;;;19.60;;
3843;SDS011;1937;51.444;6.484;2023-11-18T07:01:14;39.63;;;17.10;;
3843;SDS011;1937;51.444;6.484;2023-11-18T07:03:41;36.37;;;16.17;;
3843;SDS011;1937;51.444;6.484;2023-11-18T07:06:08;45.03;;;18.60;;
3843;SDS011;1937;51.444;6.484;2023-11-18T07:08:35;38.83;;;17.57;;
3843;SDS011;1937;51.444;6.484;2023-11-18T07:11:02;47.33;;;17.70;;
3843;SDS011;1937;51.444;6.484;2023-11-18T07:13:31;46.00;;;18.50;;
3843;SDS011;1937;51.444;6.484;2023-11-18T07:15:59;35.10;;;15.40;;
3843;SDS011;1937;51.444;6.484;2023-11-18T07:18:30;41.87;;;17.03;;
3843;SDS011;1937;51.444;6.484;2023-11-18T07:20:58;32.53;;;16.13;;
3843;SDS011;1937;51.444;6.484;2023-11-18T07:23:25;40.63;;;17.70;;
3843;SDS011;1937;51.444;6.484;2023-11-18T07:25:52;36.03;;;15.67;;
3843;SDS011;1937;51.444;6.484;2023-11-18T07:28:19;35.80;;;16.57;;
3843;SDS011;1937;51.444;6.484;2023-11-18T07:30:46;35.50;;;17.00;;
3843;SDS011;1937;51.444;6.484;2023-11-18T07:33:13;35.20;;;15.10;;
3843;SDS011;1937;51.444;6.484;2023-11-18T07:35:41;39.17;;;15.87;;
3843;SDS011;1937;51.444;6.484;2023-11-18T07:38:08;41.57;;;16.07;;
3843;SDS011;1937;51.444;6.484;2023-11-18T07:40:35;51.33;;;17.73;;
3843;SDS011;1937;51.444;6.484;2023-11-18T07:43:03;33.07;;;15.30;;
3843;SDS011;1937;51.444;6.484;2023-11-18T07:45:34;35.67;;;17.43;;
3843;SDS011;1937;51.444;6.484;2023-11-18T07:48:02;50.20;;;17.63;;
3843;SDS011;1937;51.444;6.484;2023-11-18T07:50:31;43.40;;;18.57;;
3843;SDS011;1937;51.444;6.484;2023-11-18T07:52:59;37.37;;;17.10;;
3843;SDS011;1937;51.444;6.484;2023-11-18T07:55:26;33.33;;;15.23;;
3843;SDS011;1937;51.444;6.484;2023-11-18T07:57:52;37.30;;;16.10;;
3843;SDS011;1937;51.444;6.484;2023-11-18T08:00:19;32.10;;;15.13;;
3843;SDS011;1937;51.444;6.484;2023-11-18T08:02:46;35.50;;;15.93;;
3843;SDS011;1937;51.444;6.484;2023-11-18T08:05:13;39.03;;;17.33;;
3843;SDS011;1937;51.444;6.484;2023-11-18T08:07:40;30.47;;;15.27;;
3843;SDS011;1937;51.444;6.484;2023-11-18T08:10:10;37.40;;;14.80;;
3843;SDS011;1937;51.444;6.484;2023-11-18T08:12:38;38.30;;;16.10;;
3843;SDS011;1937;51.444;6.484;2023-11-18T08:15:05;25.83;;;13.50;;
3843;SDS011;1937;51.444;6.484;2023-11-18T08:17:34;32.60;;;14.10;;
3843;SDS011;1937;51.444;6.484;2023-11-18T08:20:00;32.00;;;15.77;;
3843;SDS011;1937;51.444;6.484;2023-11-18T08:22:32;30.80;;;14.23;;
3843;SDS011;1937;51.444;6.484;2023-11-18T08:24:59;37.20;;;16.87;;
3843;SDS011;1937;51.444;6.484;2023-11-18T08:27:27;32.40;;;14.50;;
3843;SDS011;1937;51.444;6.484;2023-11-18T08:29:54;36.37;;;15.00;;
3843;SDS011;1937;51.444;6.484;2023-11-18T08:32:20;32.00;;;15.40;;
3843;SDS011;1937;51.444;6.484;2023-11-18T08:34:50;40.67;;;18.20;;
3843;SDS011;1937;51.444;6.484;2023-11-18T08:37:16;28.87;;;14.67;;
3843;SDS011;1937;51.444;6.484;2023-11-18T08:39:43;36.90;;;15.67;;
3843;SDS011;1937;51.444;6.484;2023-11-18T08:42:09;32.13;;;13.47;;
3843;SDS011;1937;51.444;6.484;2023-11-18T08:44:38;28.53;;;13.30;;
3843;SDS011;1937;51.444;6.484;2023-11-18T08:47:05;31.47;;;14.30;;
3843;SDS011;1937;51.444;6.484;2023-11-18T08:49:33;29.43;;;13.50;;
3843;SDS011;1937;51.444;6.484;2023-11-18T08:52:00;31.77;;;13.57;;
3843;SDS011;1937;51.444;6.484;2023-11-18T08:54:26;31.67;;;11.80;;
3843;SDS011;1937;51.444;6.484;2023-11-18T08:57:01;32.10;;;15.83;;
3843;SDS011;1937;51.444;6.484;2023-11-18T08:59:41;23.07;;;12.90;;
3843;SDS011;1937;51.444;6.484;2023-11-18T09:02:09;29.60;;;12.27;;
3843;SDS011;1937;51.444;6.484;2023-11-18T09:04:40;26.73;;;11.30;;
3843;SDS011;1937;51.444;6.484;2023-11-18T09:07:08;21.47;;;11.00;;
3843;SDS011;1937;51.444;6.484;2023-11-18T09:09:35;23.63;;;11.20;;
3843;SDS011;1937;51.444;6.484;2023-11-18T09:12:02;23.77;;;13.47;;
3843;SDS011;1937;51.444;6.484;2023-11-18T09:14:29;21.17;;;11.37;;
3843;SDS011;1937;51.444;6.484;2023-11-18T09:17:00;21.97;;;10.93;;
3843;SDS011;1937;51.444;6.484;2023-11-18T09:19:27;23.97;;;11.27;;
3843;SDS011;1937;51.444;6.484;2023-11-18T09:21:54;22.30;;;10.20;;
3843;SDS011;1937;51.444;6.484;2023-11-18T09:24:21;22.13;;;10.90;;
3843;SDS011;1937;51.444;6.484;2023-11-18T09:26:50;32.07;;;10.77;;
3843;SDS011;1937;51.444;6.484;2023-11-18T09:29:17;21.00;;;10.53;;
3843;SDS011;1937;51.444;6.484;2023-11-18T09:31:45;19.33;;;10.27;;
3843;SDS011;1937;51.444;6.484;2023-11-18T09:34:15;22.73;;;11.70;;
3843;SDS011;1937;51.444;6.484;2023-11-18T09:36:42;18.90;;;9.67;;
3843;SDS011;1937;51.444;6.484;2023-11-18T09:39:09;20.30;;;10.70;;
3843;SDS011;1937;51.444;6.484;2023-11-18T09:41:41;18.03;;;9.80;;
3843;SDS011;1937;51.444;6.484;2023-11-18T09:44:08;18.30;;;9.40;;
3843;SDS011;1937;51.444;6.484;2023-11-18T09:46:37;20.83;;;10.20;;
3843;SDS011;1937;51.444;6.484;2023-11-18T09:49:11;20.43;;;10.10;;
3843;SDS011;1937;51.444;6.484;2023-11-18T09:52:00;24.80;;;9.30;;
3843;SDS011;1937;51.444;6.484;2023-11-18T09:54:33;18.93;;;9.73;;
3843;SDS011;1937;51.444;6.484;2023-11-18T09:57:07;16.47;;;9.60;;
3843;SDS011;1937;51.444;6.484;2023-11-18T09:59:42;15.97;;;9.90;;
3843;SDS011;1937;51.444;6.484;2023-11-18T10:02:18;17.90;;;9.07;;
3843;SDS011;1937;51.444;6.484;2023-11-18T10:04:47;18.67;;;9.17;;
3843;SDS011;1937;51.444;6.484;2023-11-18T10:07:23;17.37;;;8.80;;
3843;SDS011;1937;51.444;6.484;2023-11-18T10:09:52;18.77;;;9.57;;
3843;SDS011;1937;51.444;6.484;2023-11-18T10:12:22;15.90;;;9.00;;
3843;SDS011;1937;51.444;6.484;2023-11-18T10:14:49;18.37;;;9.43;;
3843;SDS011;1937;51.444;6.484;2023-11-18T10:17:17;13.43;;;7.10;;
3843;SDS011;1937;51.444;6.484;2023-11-18T10:19:50;16.47;;;8.20;;
3843;SDS011;1937;51.444;6.484;2023-11-18T10:22:26;21.83;;;9.50;;
3843;SDS011;1937;51.444;6.484;2023-11-18T10:24:54;17.30;;;8.23;;
3843;SDS011;1937;51.444;6.484;2023-11-18T10:27:22;22.17;;;9.40;;
3843;SDS011;1937;51.444;6.484;2023-11-18T10:29:50;21.03;;;8.30;;
3843;SDS011;1937;51.444;6.484;2023-11-18T10:32:21;16.73;;;9.10;;
3843;SDS011;1937;51.444;6.484;2023-11-18T10:34:53;16.43;;;9.13;;
3843;SDS011;1937;51.444;6.484;2023-11-18T10:37:20;16.07;;;7.57;;
3843;SDS011;1937;51.444;6.484;2023-11-18T10:39:49;14.13;;;7.53;;
3843;SDS011;1937;51.444;6.484;2023-11-18T10:42:16;15.37;;;8.83;;
3843;SDS011;1937;51.444;6.484;2023-11-18T10:44:56;12.10;;;7.27;;
3843;SDS011;1937;51.444;6.484;2023-11-18T10:47:24;17.57;;;7.47;;
3843;SDS011;1937;51.444;6.484;2023-11-18T10:49:52;15.50;;;8.53;;
3843;SDS011;1937;51.444;6.484;2023-11-18T10:52:21;16.03;;;7.53;;
3843;SDS011;1937;51.444;6.484;2023-11-18T10:54:51;14.30;;;7.83;;
3843;SDS011;1937;51.444;6.484;2023-11-18T10:57:19;12.40;;;7.30;;
3843;SDS011;1937;51.444;6.484;2023-11-18T10:59:57;12.63;;;7.17;;
3843;SDS011;1937;51.444;6.484;2023-11-18T11:02:25;14.70;;;7.87;;
3843;SDS011;1937;51.444;6.484;2023-11-18T11:05:00;15.20;;;7.30;;
3843;SDS011;1937;51.444;6.484;2023-11-18T11:07:27;12.23;;;7.13;;
3843;SDS011;1937;51.444;6.484;2023-11-18T11:09:56;19.27;;;9.50;;
3843;SDS011;1937;51.444;6.484;2023-11-18T11:12:23;14.07;;;7.63;;
3843;SDS011;1937;51.444;6.484;2023-11-18T11:14:54;17.40;;;8.40;;
3843;SDS011;1937;51.444;6.484;2023-11-18T11:17:26;16.30;;;8.57;;
3843;SDS011;1937;51.444;6.484;2023-11-18T11:19:58;17.37;;;8.90;;
3843;SDS011;1937;51.444;6.484;2023-11-18T11:22:37;15.97;;;10.47;;
3843;SDS011;1937;51.444;6.484;2023-11-18T11:25:14;17.97;;;8.70;;
3843;SDS011;1937;51.444;6.484;2023-11-18T11:27:54;16.90;;;9.53;;
3843;SDS011;1937;51.444;6.484;2023-11-18T11:30:28;13.33;;;9.10;;
3843;SDS011;1937;51.444;6.484;2023-11-18T11:32:59;20.20;;;8.10;;
3843;SDS011;1937;51.444;6.484;2023-11-18T11:35:35;11.87;;;7.33;;
3843;SDS011;1937;51.444;6.484;2023-11-18T11:38:07;18.43;;;7.83;;
3843;SDS011;1937;51.444;6.484;2023-11-18T11:40:40;13.00;;;7.50;;
3843;SDS011;1937;51.444;6.484;2023-11-18T11:43:08;13.53;;;7.50;;
3843;SDS011;1937;51.444;6.484;2023-11-18T11:45:36;17.20;;;8.40;;
3843;SDS011;1937;51.444;6.484;2023-11-18T11:48:04;10.67;;;7.27;;
3843;SDS011;1937;51.444;6.484;2023-11-18T11:50:45;18.63;;;9.17;;
3843;SDS011;1937;51.444;6.484;2023-11-18T11:53:22;11.30;;;7.33;;
3843;SDS011;1937;51.444;6.484;2023-11-18T11:55:53;18.47;;;8.50;;
3843;SDS011;1937;51.444;6.484;2023-11-18T11:58:30;22.10;;;9.70;;
3843;SDS011;1937;51.444;6.484;2023-11-18T12:00:58;21.90;;;8.83;;
3843;SDS011;1937;51.444;6.484;2023-11-18T12:03:27;13.90;;;8.10;;
3843;SDS011;1937;51.444;6.484;2023-11-18T12:06:01;16.13;;;9.03;;
3843;SDS011;1937;51.444;6.484;2023-11-18T12:08:34;16.27;;;8.53;;
3843;SDS011;1937;51.444;6.484;2023-11-18T12:11:04;12.07;;;8.17;;
3843;SDS011;1937;51.444;6.484;2023-11-18T12:13:34;14.10;;;7.20;;
3843;SDS011;1937;51.444;6.484;2023-11-18T12:16:04;16.60;;;7.70;;
3843;SDS011;1937;51.444;6.484;2023-11-18T12:18:35;13.30;;;6.90;;
3843;SDS011;1937;51.444;6.484;2023-11-18T12:21:02;13.03;;;7.90;;
3843;SDS011;1937;51.444;6.484;2023-11-18T12:23:29;13.77;;;7.60;;
3843;SDS011;1937;51.444;6.484;2023-11-18T12:25:59;13.27;;;8.20;;
3843;SDS011;1937;51.444;6.484;2023-11-18T12:28:29;15.13;;;8.20;;
3843;SDS011;1937;51.444;6.484;2023-11-18T12:30:59;19.10;;;9.17;;
3843;SDS011;1937;51.444;6.484;2023-11-18T12:42:59;11.17;;;7.63;;
3843;SDS011;1937;51.444;6.484;2023-11-18T12:45:39;15.30;;;7.43;;
3843;SDS011;1937;51.444;6.484;2023-11-18T12:48:11;14.63;;;7.23;;
3843;SDS011;1937;51.444;6.484;2023-11-18T12:50:41;14.23;;;6.60;;
3843;SDS011;1937;51.444;6.484;2023-11-18T12:53:10;15.50;;;7.67;;
3843;SDS011;1937;51.444;6.484;2023-11-18T12:55:39;15.70;;;8.80;;
3843;SDS011;1937;51.444;6.484;2023-11-18T12:58:06;14.90;;;7.60;;
3843;SDS011;1937;51.444;6.484;2023-11-18T13:00:33;18.60;;;7.90;;
3843;SDS011;1937;51.444;6.484;2023-11-18T13:03:02;20.20;;;6.70;;
3843;SDS011;1937;51.444;6.484;2023-11-18T13:05:29;12.30;;;8.27;;
3843;SDS011;1937;51.444;6.484;2023-11-18T13:07:56;13.83;;;7.37;;
3843;SDS011;1937;51.444;6.484;2023-11-18T13:10:24;11.73;;;7.57;;
3843;SDS011;1937;51.444;6.484;2023-11-18T13:12:52;11.57;;;7.10;;
3843;SDS011;1937;51.444;6.484;2023-11-18T13:15:18;14.27;;;6.83;;
3843;SDS011;1937;51.444;6.484;2023-11-18T13:17:59;13.47;;;7.40;;
3843;SDS011;1937;51.444;6.484;2023-11-18T13:20:27;12.73;;;7.70;;
3843;SDS011;1937;51.444;6.484;2023-11-18T13:22:54;15.20;;;7.43;;
3843;SDS011;1937;51.444;6.484;2023-11-18T13:25:21;13.53;;;6.77;;
3843;SDS011;1937;51.444;6.484;2023-11-18T13:27:49;10.60;;;6.57;;
3843;SDS011;1937;51.444;6.484;2023-11-18T13:30:16;12.57;;;6.50;;
3843;SDS011;1937;51.444;6.484;2023-11-18T13:32:43;19.03;;;8.40;;
3843;SDS011;1937;51.444;6.484;2023-11-18T13:35:11;11.97;;;7.47;;
3843;SDS011;1937;51.444;6.484;2023-11-18T13:37:40;12.70;;;7.70;;
3843;SDS011;1937;51.444;6.484;2023-11-18T13:40:07;18.40;;;8.00;;
3843;SDS011;1937;51.444;6.484;2023-11-18T13:42:34;13.70;;;7.60;;
3843;SDS011;1937;51.444;6.484;2023-11-18T13:45:03;16.63;;;7.03;;
3843;SDS011;1937;51.444;6.484;2023-11-18T13:47:37;8.83;;;4.40;;
3843;SDS011;1937;51.444;6.484;2023-11-18T13:50:06;12.53;;;5.30;;
3843;SDS011;1937;51.444;6.484;2023-11-18T13:52:33;14.47;;;6.57;;
3843;SDS011;1937;51.444;6.484;2023-11-18T13:55:01;9.43;;;5.30;;
3843;SDS011;1937;51.444;6.484;2023-11-18T13:57:31;12.37;;;5.23;;
3843;SDS011;1937;51.444;6.484;2023-11-18T13:59:58;9.07;;;5.63;;
3843;SDS011;1937;51.444;6.484;2023-11-18T14:02:24;7.70;;;4.70;;
3843;SDS011;1937;51.444;6.484;2023-11-18T14:04:54;7.87;;;5.50;;
3843;SDS011;1937;51.444;6.484;2023-11-18T14:07:22;12.57;;;5.57;;
3843;SDS011;1937;51.444;6.484;2023-11-18T14:09:49;9.33;;;4.70;;
3843;SDS011;1937;51.444;6.484;2023-11-18T14:12:21;7.07;;;5.70;;
3843;SDS011;1937;51.444;6.484;2023-11-18T14:14:48;8.63;;;4.90;;
3843;SDS011;1937;51.444;6.484;2023-11-18T14:17:15;7.40;;;5.03;;
3843;SDS011;1937;51.444;6.484;2023-11-18T14:19:42;10.57;;;5.07;;
3843;SDS011;1937;51.444;6.484;2023-11-18T14:22:08;7.57;;;4.30;;
3843;SDS011;1937;51.444;6.484;2023-11-18T14:24:35;8.77;;;3.47;;
3843;SDS011;1937;51.444;6.484;2023-11-18T14:27:01;9.17;;;4.33;;
3843;SDS011;1937;51.444;6.484;2023-11-18T14:29:31;11.87;;;4.33;;
3843;SDS011;1937;51.444;6.484;2023-11-18T14:31:57;5.10;;;3.97;;
3843;SDS011;1937;51.444;6.484;2023-11-18T14:34:24;6.00;;;4.07;;
3843;SDS011;1937;51.444;6.484;2023-11-18T14:36:50;11.93;;;4.83;;
3843;SDS011;1937;51.444;6.484;2023-11-18T14:39:17;9.87;;;4.40;;
3843;SDS011;1937;51.444;6.484;2023-11-18T14:41:47;6.13;;;3.77;;
3843;SDS011;1937;51.444;6.484;2023-11-18T14:44:14;5.50;;;4.47;;
3843;SDS011;1937;51.444;6.484;2023-11-18T14:46:43;6.67;;;4.97;;
3843;SDS011;1937;51.444;6.484;2023-11-18T14:49:10;6.90;;;3.73;;
3843;SDS011;1937;51.444;6.484;2023-11-18T14:51:37;6.93;;;4.67;;
3843;SDS011;1937;51.444;6.484;2023-11-18T14:54:05;7.93;;;4.70;;
3843;SDS011;1937;51.444;6.484;2023-11-18T14:56:31;7.57;;;4.93;;
3843;SDS011;1937;51.444;6.484;2023-11-18T14:59:00;8.53;;;4.40;;
3843;SDS011;1937;51.444;6.484;2023-11-18T15:01:26;8.17;;;3.90;;
3843;SDS011;1937;51.444;6.484;2023-11-18T15:03:55;17.27;;;4.57;;
3843;SDS011;1937;51.444;6.484;2023-11-18T15:06:25;9.60;;;5.30;;
3843;SDS011;1937;51.444;6.484;2023-11-18T15:08:52;6.40;;;5.10;;